Nickerson, Kansas
Current Conditions -  °F | °C
As of 11:52 PM on Friday 28 Nov 2014 (Local Time) from KHUT Reporting Station
Clear Clear  
Wind Chill: 41°   Ceiling: Unl
Heat Index: 45°   Visibility: 10mi
Dew Point: 37°   Wind: 8mph
Humidity: 74%   Direction: 140°SE
Pressure: 29.72"   Gusts: NA
Location:  38.15°N, 98.08°W
Report Text: KHUT 290552Z AUTO 14007KT 10SM CLR 07/03 A2972 RMK AO2 SLP054 T00720028 10106 20061 401781006 58019
Loading
Personal Weather Stations






























Interactive Weather Map New forecast layout! Learn more

10-Day Weather Forecast

Advertisements
Track Severe Weather on mobile